createdAt,value
2018-11-02T00:02:17.307Z,99.90
2018-11-02T00:04:45.780Z,99.90
2018-11-02T00:07:14.961Z,99.90
2018-11-02T00:09:43.390Z,99.90
2018-11-02T00:12:12.005Z,99.90
2018-11-02T00:14:40.433Z,99.90
2018-11-02T00:17:08.915Z,99.90
2018-11-02T00:19:37.313Z,99.90
2018-11-02T00:22:06.678Z,99.90
2018-11-02T00:24:35.233Z,99.90
2018-11-02T00:27:03.811Z,99.90
2018-11-02T00:29:33.006Z,99.90
2018-11-02T00:32:01.505Z,99.90
2018-11-02T00:34:30.006Z,99.90
2018-11-02T00:36:58.507Z,99.90
2018-11-02T00:39:26.942Z,99.90
2018-11-02T00:41:55.649Z,99.90
2018-11-02T00:44:24.061Z,99.90
2018-11-02T00:46:52.456Z,99.90
2018-11-02T00:49:20.907Z,99.90
2018-11-02T00:51:49.365Z,99.90
2018-11-02T00:54:17.814Z,99.90
2018-11-02T00:56:46.223Z,99.90
2018-11-02T00:59:14.653Z,99.90
2018-11-02T01:01:43.105Z,99.90
2018-11-02T01:04:11.543Z,99.90
2018-11-02T01:06:40.022Z,99.90
2018-11-02T01:09:10.011Z,99.90
2018-11-02T01:11:39.408Z,99.90
2018-11-02T01:14:08.018Z,99.90
2018-11-02T01:16:36.499Z,99.90
2018-11-02T01:19:05.115Z,99.90
2018-11-02T01:21:33.745Z,99.90
2018-11-02T01:24:02.157Z,99.90
2018-11-02T01:26:30.587Z,99.90
2018-11-02T01:28:59.025Z,99.90
2018-11-02T01:31:27.454Z,99.90
2018-11-02T01:33:55.884Z,99.90
2018-11-02T01:36:24.332Z,99.90
2018-11-02T01:38:52.774Z,99.90
2018-11-02T01:41:21.177Z,99.90
2018-11-02T01:43:49.597Z,99.90
2018-11-02T01:46:18.588Z,99.90
2018-11-02T01:48:46.996Z,99.90
2018-11-02T01:51:15.424Z,99.90
2018-11-02T01:53:43.814Z,99.90
2018-11-02T01:56:12.267Z,99.90
2018-11-02T01:58:40.673Z,99.90
2018-11-02T02:01:09.103Z,99.90
2018-11-02T02:03:37.523Z,99.90
2018-11-02T02:06:12.720Z,99.90
2018-11-02T02:08:41.145Z,99.90
2018-11-02T02:11:09.585Z,99.90
2018-11-02T02:13:37.998Z,99.90
2018-11-02T02:16:06.625Z,99.90
2018-11-02T02:18:35.026Z,99.90
2018-11-02T02:21:03.442Z,99.90
2018-11-02T02:23:31.860Z,99.90
2018-11-02T02:26:00.240Z,99.90
2018-11-02T02:28:28.680Z,99.90
2018-11-02T02:30:57.044Z,99.90
2018-11-02T02:33:25.537Z,99.90
2018-11-02T02:35:53.927Z,99.90
2018-11-02T02:38:22.345Z,99.90
2018-11-02T02:40:50.751Z,99.90
2018-11-02T02:43:19.179Z,99.90
2018-11-02T02:45:47.569Z,99.90
2018-11-02T02:48:15.954Z,99.90
2018-11-02T02:50:44.387Z,99.90
2018-11-02T02:53:12.777Z,99.90
2018-11-02T02:55:41.201Z,99.90
2018-11-02T02:58:09.608Z,99.90
2018-11-02T03:00:38.008Z,99.90
2018-11-02T03:03:06.721Z,99.90
2018-11-02T03:05:35.115Z,99.90
2018-11-02T03:08:03.585Z,99.90
2018-11-02T03:10:32.051Z,99.90
2018-11-02T03:13:00.550Z,99.90
2018-11-02T03:15:28.962Z,99.90
2018-11-02T03:17:57.498Z,99.90
2018-11-02T03:20:25.977Z,99.90
2018-11-02T03:22:55.104Z,99.90
2018-11-02T03:25:23.637Z,99.90
2018-11-02T03:27:52.070Z,99.90
2018-11-02T03:30:20.530Z,99.90
2018-11-02T03:32:49.004Z,99.90
2018-11-02T03:35:17.524Z,99.90
2018-11-02T03:37:45.992Z,99.90
2018-11-02T03:40:14.420Z,99.90
2018-11-02T03:42:43.841Z,99.90
2018-11-02T03:45:12.234Z,99.90
2018-11-02T03:47:40.735Z,99.90
2018-11-02T03:50:10.736Z,99.90
2018-11-02T03:52:39.533Z,99.90
2018-11-02T03:55:08.914Z,99.90
2018-11-02T03:57:37.328Z,99.90
2018-11-02T04:00:06.893Z,99.90
2018-11-02T04:02:35.314Z,99.90
2018-11-02T04:05:03.814Z,99.90
2018-11-02T04:07:32.355Z,99.90
2018-11-02T04:10:00.809Z,99.90
2018-11-02T04:12:29.321Z,99.90
2018-11-02T04:14:57.917Z,99.90
2018-11-02T04:17:26.444Z,99.90
2018-11-02T04:19:54.910Z,99.90
2018-11-02T04:22:24.323Z,99.90
2018-11-02T04:24:52.767Z,99.90
2018-11-02T04:27:21.354Z,99.90
2018-11-02T04:29:49.900Z,99.90
2018-11-02T04:32:18.305Z,99.90
2018-11-02T04:34:46.831Z,99.90
2018-11-02T04:37:15.292Z,99.90
2018-11-02T04:39:52.469Z,99.90
2018-11-02T04:42:20.881Z,99.90
2018-11-02T04:44:53.368Z,99.90
2018-11-02T04:47:21.811Z,99.90
2018-11-02T04:49:56.275Z,99.90
2018-11-02T04:52:24.795Z,99.90
2018-11-02T04:54:53.252Z,99.90
2018-11-02T04:57:21.862Z,99.90
2018-11-02T04:59:50.314Z,99.90
2018-11-02T05:02:18.761Z,99.90
2018-11-02T05:04:47.342Z,99.90
2018-11-02T05:07:15.761Z,99.90
2018-11-02T05:09:45.066Z,99.90
2018-11-02T05:12:13.524Z,99.90
2018-11-02T05:14:42.001Z,99.90
2018-11-02T05:17:10.453Z,99.90
2018-11-02T05:19:38.893Z,99.90
2018-11-02T05:22:07.468Z,99.90
2018-11-02T05:24:35.936Z,99.90
2018-11-02T05:27:04.382Z,99.90
2018-11-02T05:29:32.808Z,99.90
2018-11-02T05:32:01.313Z,99.90
2018-11-02T05:34:29.744Z,99.90
2018-11-02T05:36:58.226Z,99.90
2018-11-02T05:39:26.832Z,99.90
2018-11-02T05:41:55.284Z,99.90
2018-11-02T05:44:23.953Z,99.90
2018-11-02T05:46:52.522Z,99.90
2018-11-02T05:49:21.201Z,99.90
2018-11-02T05:51:49.680Z,99.90
2018-11-02T05:54:18.207Z,99.90
2018-11-02T05:56:46.638Z,99.90
2018-11-02T05:59:15.186Z,99.90
2018-11-02T06:01:43.654Z,99.90
2018-11-02T06:04:12.081Z,99.90
2018-11-02T06:06:40.562Z,99.90
2018-11-02T06:09:09.341Z,99.90
2018-11-02T06:11:37.802Z,99.90
2018-11-02T06:14:06.299Z,99.90
2018-11-02T06:16:35.393Z,99.90
2018-11-02T06:19:03.844Z,99.90
2018-11-02T06:21:32.420Z,99.90
2018-11-02T06:24:01.143Z,99.90
2018-11-02T06:26:30.986Z,99.90
2018-11-02T06:28:59.482Z,99.90
2018-11-02T06:31:28.079Z,99.90
2018-11-02T06:33:56.607Z,99.90
2018-11-02T06:36:25.064Z,99.90
2018-11-02T06:38:53.729Z,99.90
2018-11-02T06:41:22.857Z,99.90
2018-11-02T06:43:51.402Z,99.90
2018-11-02T06:46:20.230Z,99.90
2018-11-02T06:48:48.681Z,99.90
2018-11-02T06:51:17.177Z,99.90
2018-11-02T06:53:45.748Z,99.90
2018-11-02T06:56:14.366Z,99.90
2018-11-02T06:58:42.914Z,99.90
2018-11-02T07:01:11.410Z,99.90
2018-11-02T07:03:39.881Z,99.90
2018-11-02T07:06:08.327Z,99.90
2018-11-02T07:08:36.979Z,99.90
2018-11-02T07:11:05.393Z,99.90
2018-11-02T07:13:33.883Z,99.90
2018-11-02T07:16:02.360Z,99.90
2018-11-02T07:18:31.014Z,99.90
2018-11-02T07:20:59.489Z,99.90
2018-11-02T07:23:28.197Z,99.90
2018-11-02T07:25:57.033Z,99.90
2018-11-02T07:28:25.910Z,99.90
2018-11-02T07:30:54.519Z,99.90
2018-11-02T07:33:24.172Z,99.90
2018-11-02T07:35:53.051Z,99.90
2018-11-02T07:38:21.936Z,99.90
2018-11-02T07:40:50.894Z,99.90
2018-11-02T07:43:19.931Z,99.90
2018-11-02T07:45:48.844Z,99.90
2018-11-02T07:48:18.101Z,99.90
2018-11-02T07:50:47.030Z,99.90
2018-11-02T07:53:15.757Z,99.90
2018-11-02T07:55:44.473Z,99.90
2018-11-02T07:58:13.275Z,99.90
2018-11-02T08:00:42.111Z,99.90
2018-11-02T08:03:10.811Z,99.90
2018-11-02T08:05:39.475Z,99.90
2018-11-02T08:08:08.475Z,99.30
2018-11-02T08:10:37.093Z,98.70
2018-11-02T08:13:06.022Z,97.60
2018-11-02T08:15:34.857Z,98.10
2018-11-02T08:18:04.262Z,97.80
2018-11-02T08:20:33.072Z,97.30
2018-11-02T08:23:01.893Z,96.20
2018-11-02T08:25:30.717Z,95.10
2018-11-02T08:27:59.990Z,95.60
2018-11-02T08:30:28.964Z,92.50
2018-11-02T08:33:04.282Z,91.10
2018-11-02T08:35:33.858Z,90.70
2018-11-02T08:38:02.537Z,91.30
2018-11-02T08:43:22.234Z,91.50
2018-11-02T08:45:51.760Z,90.50
2018-11-02T08:48:20.871Z,90.60
2018-11-02T08:50:51.576Z,89.10
2018-11-02T08:53:20.948Z,90.40
2018-11-02T08:55:49.830Z,90.00
2018-11-02T08:58:19.111Z,87.00
2018-11-02T09:00:47.697Z,87.80
2018-11-02T09:03:17.659Z,84.20
2018-11-02T09:05:47.371Z,80.00
2018-11-02T09:08:16.081Z,81.40
2018-11-02T09:10:46.170Z,79.80
2018-11-02T09:13:15.980Z,76.70
2018-11-02T09:15:44.888Z,74.10
2018-11-02T09:18:14.227Z,66.60
2018-11-02T09:20:43.160Z,57.90
2018-11-02T09:23:12.235Z,54.70
2018-11-02T09:25:41.168Z,54.60
2018-11-02T09:28:10.894Z,53.10
2018-11-02T09:30:39.951Z,53.60
2018-11-02T09:33:09.007Z,54.00
2018-11-02T09:35:39.096Z,54.50
2018-11-02T09:38:08.177Z,55.30
2018-11-02T09:40:37.239Z,56.00
2018-11-02T09:43:06.509Z,54.50
2018-11-02T09:45:36.453Z,54.30
2018-11-02T09:48:05.948Z,54.80
2018-11-02T09:50:35.239Z,55.30
2018-11-02T09:53:04.199Z,55.40
2018-11-02T09:55:33.329Z,56.20
2018-11-02T09:58:02.709Z,57.00
2018-11-02T10:00:31.749Z,57.60
2018-11-02T10:03:00.740Z,58.50
2018-11-02T10:05:29.238Z,58.10
2018-11-02T10:07:57.860Z,58.50
2018-11-02T10:10:26.662Z,58.30
2018-11-02T10:12:55.756Z,57.40
2018-11-02T10:15:24.587Z,57.80
2018-11-02T10:17:53.333Z,58.00
2018-11-02T10:20:21.893Z,57.90
2018-11-02T10:22:50.350Z,58.30
2018-11-02T10:25:18.927Z,58.30
2018-11-02T10:27:47.559Z,58.00
2018-11-02T10:30:16.261Z,58.30
2018-11-02T10:32:54.731Z,58.80
2018-11-02T10:35:23.987Z,59.20
2018-11-02T10:37:54.391Z,59.70
2018-11-02T10:40:23.335Z,59.80
2018-11-02T10:42:57.103Z,59.70
2018-11-02T10:45:33.147Z,59.70
2018-11-02T10:48:03.455Z,60.00
2018-11-02T10:50:32.122Z,60.00
2018-11-02T10:53:01.616Z,60.60
2018-11-02T10:55:30.367Z,60.80
2018-11-02T10:57:59.167Z,60.80
2018-11-02T11:00:33.287Z,59.70
2018-11-02T11:03:01.998Z,59.90
2018-11-02T11:05:30.981Z,60.10
2018-11-02T11:07:59.748Z,60.50
2018-11-02T11:10:28.417Z,60.90
2018-11-02T11:12:57.317Z,61.00
2018-11-02T11:15:25.768Z,60.70
2018-11-02T11:17:54.623Z,60.00
2018-11-02T11:20:23.719Z,59.40
2018-11-02T11:22:52.354Z,58.90
2018-11-02T11:25:20.831Z,58.70
2018-11-02T11:27:49.488Z,58.10
2018-11-02T11:30:19.386Z,58.00
2018-11-02T11:32:49.270Z,57.40
2018-11-02T11:35:18.647Z,57.50
2018-11-02T11:37:47.547Z,57.10
2018-11-02T11:40:17.390Z,56.30
2018-11-02T11:42:46.154Z,56.10
2018-11-02T11:45:16.848Z,56.00
2018-11-02T11:47:45.724Z,55.50
2018-11-02T11:50:17.725Z,55.40
2018-11-02T11:52:47.446Z,54.80
2018-11-02T11:55:16.630Z,55.30
2018-11-02T11:57:45.215Z,55.00
2018-11-02T12:00:16.963Z,56.00
2018-11-02T12:02:46.760Z,55.60
2018-11-02T12:05:17.098Z,55.20
2018-11-02T12:07:45.673Z,55.20
2018-11-02T12:10:18.698Z,56.30
2018-11-02T12:12:47.225Z,55.70
2018-11-02T12:15:17.495Z,56.50
2018-11-02T12:17:46.565Z,56.30
2018-11-02T12:20:19.743Z,56.20
2018-11-02T12:22:49.057Z,55.80
2018-11-02T12:25:17.645Z,56.30
2018-11-02T12:27:46.259Z,56.60
2018-11-02T12:30:15.945Z,56.80
2018-11-02T12:32:44.515Z,57.20
2018-11-02T12:35:14.533Z,57.80
2018-11-02T12:37:43.037Z,58.00
2018-11-02T12:40:14.029Z,58.20
2018-11-02T12:42:43.121Z,57.50
2018-11-02T12:45:13.160Z,57.00
2018-11-02T12:47:42.230Z,56.80
2018-11-02T12:50:18.270Z,57.10
2018-11-02T12:52:47.505Z,57.40
2018-11-02T12:55:16.587Z,57.80
2018-11-02T12:57:45.463Z,58.00
2018-11-02T13:00:16.236Z,57.70
2018-11-02T13:02:45.508Z,58.00
2018-11-02T13:05:14.065Z,58.00
2018-11-02T13:07:42.569Z,56.20
2018-11-02T13:10:13.390Z,55.00
2018-11-02T13:12:41.897Z,54.80
2018-11-02T13:15:12.413Z,55.10
2018-11-02T13:17:42.017Z,54.40
2018-11-02T13:20:11.133Z,54.10
2018-11-02T13:22:40.320Z,54.30
2018-11-02T13:25:10.942Z,54.40
2018-11-02T13:27:46.855Z,54.70
2018-11-02T13:30:15.439Z,54.60
2018-11-02T13:32:43.926Z,55.20
2018-11-02T13:35:17.361Z,55.10
2018-11-02T13:37:46.370Z,55.20
2018-11-02T13:40:16.057Z,55.50
2018-11-02T13:42:45.067Z,55.60
2018-11-02T13:45:14.842Z,56.20
2018-11-02T13:47:43.867Z,55.40
2018-11-02T13:50:12.852Z,55.30
2018-11-02T13:52:42.545Z,55.40
2018-11-02T13:55:11.953Z,55.20
2018-11-02T13:57:40.992Z,55.40
2018-11-02T14:00:12.484Z,55.10
2018-11-02T14:02:41.492Z,54.80
2018-11-02T14:05:11.875Z,54.60
2018-11-02T14:07:40.732Z,54.30
2018-11-02T14:10:10.768Z,54.20
2018-11-02T14:12:40.050Z,53.60
2018-11-02T14:15:10.962Z,53.00
2018-11-02T14:17:40.135Z,52.90
2018-11-02T14:20:10.030Z,52.50
2018-11-02T14:22:38.875Z,52.20
2018-11-02T14:25:09.273Z,52.10
2018-11-02T14:27:38.047Z,52.30
2018-11-02T14:30:08.677Z,52.50
2018-11-02T14:32:37.819Z,52.80
2018-11-02T14:35:06.885Z,53.00
2018-11-02T14:37:35.676Z,53.10
2018-11-02T14:40:05.504Z,53.20
2018-11-02T14:42:34.249Z,53.30
2018-11-02T14:45:02.815Z,53.50
2018-11-02T14:47:31.312Z,54.00
2018-11-02T14:49:59.810Z,54.30
2018-11-02T14:52:29.215Z,54.40
2018-11-02T14:54:57.786Z,53.90
2018-11-02T14:57:26.272Z,53.40
2018-11-02T14:59:55.547Z,53.80
2018-11-02T15:02:24.085Z,53.00
2018-11-02T15:04:52.629Z,52.80
2018-11-02T15:07:21.340Z,52.90
2018-11-02T15:09:49.814Z,52.90
2018-11-02T15:12:18.327Z,52.90
2018-11-02T15:14:47.140Z,53.00
2018-11-02T15:17:15.977Z,53.00
2018-11-02T15:19:45.041Z,53.20
2018-11-02T15:22:13.761Z,53.50
2018-11-02T15:24:43.428Z,53.90
2018-11-02T15:27:11.995Z,54.10
2018-11-02T15:29:40.766Z,54.30
2018-11-02T15:32:09.408Z,54.40
2018-11-02T15:34:38.052Z,54.50
2018-11-02T15:37:06.415Z,54.80
2018-11-02T15:39:34.937Z,54.90
2018-11-02T15:42:03.523Z,55.20
2018-11-02T15:44:32.124Z,55.80
2018-11-02T15:47:00.537Z,56.10
2018-11-02T15:49:29.110Z,56.30
2018-11-02T15:51:57.633Z,56.60
2018-11-02T15:54:26.099Z,56.80
2018-11-02T15:56:55.287Z,57.40
2018-11-02T15:59:23.792Z,57.90
2018-11-02T16:01:52.612Z,58.10
2018-11-02T16:04:21.282Z,58.70
2018-11-02T16:06:49.882Z,59.00
2018-11-02T16:09:18.449Z,59.30
2018-11-02T16:11:47.303Z,60.10
2018-11-02T16:14:15.872Z,59.90
2018-11-02T16:16:44.390Z,60.40
2018-11-02T16:19:12.898Z,60.80
2018-11-02T16:21:41.546Z,62.50
2018-11-02T16:24:11.210Z,63.00
2018-11-02T16:26:40.154Z,63.80
2018-11-02T16:29:08.685Z,64.30
2018-11-02T16:31:37.156Z,65.30
2018-11-02T16:34:05.979Z,66.40
2018-11-02T16:36:34.491Z,66.70
2018-11-02T16:39:03.125Z,67.40
2018-11-02T16:41:51.346Z,68.10
2018-11-02T16:47:10.620Z,69.20
2018-11-02T16:49:39.250Z,69.90
2018-11-02T16:52:08.977Z,71.20
2018-11-02T16:54:37.684Z,71.90
2018-11-02T16:57:06.133Z,72.60
2018-11-02T16:59:35.145Z,73.20
2018-11-02T17:02:03.672Z,73.90
2018-11-02T17:04:32.145Z,74.30
2018-11-02T17:07:00.886Z,75.50
2018-11-02T17:09:30.291Z,76.40
2018-11-02T17:14:49.699Z,78.20
2018-11-02T17:17:18.189Z,79.30
2018-11-02T17:19:46.652Z,80.30
2018-11-02T17:22:15.235Z,81.40
2018-11-02T17:24:43.700Z,82.60
2018-11-02T17:27:12.207Z,84.30
2018-11-02T17:29:40.743Z,86.40
2018-11-02T17:32:09.235Z,88.20
2018-11-02T17:34:37.722Z,90.10
2018-11-02T17:37:07.569Z,91.20
2018-11-02T17:39:37.406Z,92.30
2018-11-02T17:42:06.515Z,93.40
2018-11-02T17:44:35.051Z,94.20
2018-11-02T17:47:03.558Z,94.60
2018-11-02T17:49:32.167Z,95.20
2018-11-02T17:52:00.754Z,95.50
2018-11-02T17:54:29.341Z,95.80
2018-11-02T17:56:58.502Z,96.30
2018-11-02T17:59:27.143Z,96.60
2018-11-02T18:01:55.792Z,97.30
2018-11-02T18:04:24.552Z,97.40
2018-11-02T18:06:53.364Z,97.50
2018-11-02T18:09:21.954Z,97.90
2018-11-02T18:11:50.974Z,98.20
2018-11-02T18:14:19.597Z,98.60
2018-11-02T18:16:48.063Z,99.20
2018-11-02T18:19:16.573Z,99.90
2018-11-02T18:21:45.158Z,99.90
2018-11-02T18:24:14.426Z,99.90
2018-11-02T18:26:42.879Z,99.90
2018-11-02T18:29:11.480Z,99.90
2018-11-02T18:31:41.170Z,99.90
2018-11-02T18:34:09.764Z,99.90
2018-11-02T18:36:38.834Z,99.90
2018-11-02T18:39:12.217Z,99.90
2018-11-02T18:41:41.325Z,99.90
2018-11-02T18:44:10.634Z,99.90
2018-11-02T18:46:39.999Z,99.90
2018-11-02T18:49:08.647Z,99.90
2018-11-02T18:51:37.480Z,99.90
2018-11-02T18:54:06.164Z,99.90
2018-11-02T18:56:35.159Z,99.90
2018-11-02T18:59:03.720Z,99.90
2018-11-02T19:01:32.264Z,99.90
2018-11-02T19:04:00.940Z,99.90
2018-11-02T19:06:29.734Z,99.90
2018-11-02T19:08:58.297Z,99.90
2018-11-02T19:11:26.821Z,99.90
2018-11-02T19:13:55.865Z,99.90
2018-11-02T19:16:24.469Z,99.90
2018-11-02T19:18:53.115Z,99.90
2018-11-02T19:21:21.683Z,99.90
2018-11-02T19:23:50.355Z,99.90
2018-11-02T19:26:19.009Z,99.90
2018-11-02T19:28:47.892Z,99.90
2018-11-02T19:31:16.480Z,99.90
2018-11-02T19:33:45.255Z,99.90
2018-11-02T19:36:13.833Z,99.90
2018-11-02T19:38:42.703Z,99.90
2018-11-02T19:41:11.463Z,99.90
2018-11-02T19:43:40.775Z,99.90
2018-11-02T19:46:09.634Z,99.90
2018-11-02T19:48:38.702Z,99.90
2018-11-02T19:51:08.226Z,99.90
2018-11-02T19:53:37.337Z,99.90
2018-11-02T19:56:06.280Z,99.90
2018-11-02T19:58:35.200Z,99.90
2018-11-02T20:01:04.089Z,99.90
2018-11-02T20:03:32.776Z,99.90
2018-11-02T20:06:01.521Z,99.90
2018-11-02T20:08:30.852Z,99.90
2018-11-02T20:10:59.693Z,99.90
2018-11-02T20:13:50.868Z,99.90
2018-11-02T20:16:19.944Z,99.90
2018-11-02T20:19:56.909Z,99.90
2018-11-02T20:22:26.078Z,99.90
2018-11-02T20:24:55.002Z,99.90
2018-11-02T20:27:24.270Z,99.90
2018-11-02T20:29:52.959Z,99.90
2018-11-02T20:32:21.684Z,99.90
2018-11-02T20:34:54.307Z,99.90
2018-11-02T20:37:23.221Z,99.90
2018-11-02T20:39:52.307Z,99.90
2018-11-02T20:45:06.589Z,99.90
2018-11-02T20:47:40.700Z,99.90
2018-11-02T20:50:11.163Z,99.90
2018-11-02T20:52:41.130Z,99.90
2018-11-02T20:55:12.101Z,99.90
2018-11-02T20:57:41.871Z,99.90
2018-11-02T21:00:13.894Z,99.90
2018-11-02T21:02:43.374Z,99.90
2018-11-02T21:05:15.410Z,99.90
2018-11-02T21:07:44.758Z,99.90
2018-11-02T21:10:14.655Z,99.90
2018-11-02T21:12:44.021Z,99.90
2018-11-02T21:15:18.441Z,99.90
2018-11-02T21:17:47.518Z,99.90
2018-11-02T21:20:18.559Z,99.90
2018-11-02T21:22:47.350Z,99.90
2018-11-02T21:25:16.158Z,99.90
2018-11-02T21:27:45.299Z,99.90
2018-11-02T21:30:28.209Z,99.90
2018-11-02T21:32:57.046Z,99.90
2018-11-02T21:43:57.609Z,99.90
2018-11-02T21:46:26.416Z,99.90
2018-11-02T21:48:55.209Z,99.90
2018-11-02T21:54:15.902Z,99.90
2018-11-02T21:56:53.211Z,99.90
2018-11-02T21:59:21.901Z,99.90
2018-11-02T22:01:53.489Z,99.90
2018-11-02T22:04:22.042Z,99.90
2018-11-02T22:06:51.172Z,99.90
2018-11-02T22:09:20.011Z,99.90
2018-11-02T22:11:53.466Z,99.90
2018-11-02T22:14:22.295Z,99.90
2018-11-02T22:16:54.048Z,99.90
2018-11-02T22:19:22.796Z,99.90
2018-11-02T22:21:51.417Z,99.90
2018-11-02T22:24:20.005Z,99.90
2018-11-02T22:26:49.320Z,99.90
2018-11-02T22:29:17.866Z,99.90
2018-11-02T22:31:46.610Z,99.90
2018-11-02T22:34:15.234Z,99.90
2018-11-02T22:36:44.410Z,99.90
2018-11-02T22:39:12.963Z,99.90
2018-11-02T22:41:42.366Z,99.90
2018-11-02T22:44:11.183Z,99.90
2018-11-02T22:46:40.421Z,99.90
2018-11-02T22:49:09.107Z,99.90
2018-11-02T22:51:37.841Z,99.90
2018-11-02T22:54:07.430Z,99.90
2018-11-02T22:56:37.428Z,99.90
2018-11-02T22:59:06.911Z,99.90
2018-11-02T23:01:36.812Z,99.90
2018-11-02T23:04:07.053Z,99.90
2018-11-02T23:06:39.324Z,99.90
2018-11-02T23:09:16.426Z,99.90
2018-11-02T23:11:45.164Z,99.90
2018-11-02T23:14:18.450Z,99.90
2018-11-02T23:16:47.163Z,99.90
2018-11-02T23:22:02.428Z,99.90
2018-11-02T23:24:32.178Z,99.90
2018-11-02T23:27:01.063Z,99.90
2018-11-02T23:29:30.730Z,99.90
2018-11-02T23:32:02.151Z,99.90
2018-11-02T23:34:34.063Z,99.90
2018-11-02T23:37:05.212Z,99.90
2018-11-02T23:39:34.320Z,99.90
2018-11-02T23:42:03.510Z,99.90
2018-11-02T23:44:32.397Z,99.90
2018-11-02T23:47:01.861Z,99.90
2018-11-02T23:49:31.864Z,99.90
2018-11-02T23:52:00.421Z,99.90
2018-11-02T23:54:29.106Z,99.90
2018-11-02T23:56:58.640Z,99.90
2018-11-02T23:59:28.249Z,99.90
